createdAt,value
2022-11-02T00:02:18.119Z,99.90
2022-11-02T00:04:45.058Z,99.90
2022-11-02T00:07:12.069Z,99.90
2022-11-02T00:09:38.945Z,99.90
2022-11-02T00:12:06.614Z,99.90
2022-11-02T00:14:33.498Z,99.90
2022-11-02T00:17:00.398Z,99.90
2022-11-02T00:19:27.260Z,99.90
2022-11-02T00:21:55.635Z,99.90
2022-11-02T00:24:22.589Z,99.90
2022-11-02T00:26:49.538Z,99.90
2022-11-02T00:29:16.563Z,99.90
2022-11-02T00:31:43.556Z,99.90
2022-11-02T00:34:10.482Z,99.90
2022-11-02T00:36:37.374Z,99.90
2022-11-02T00:39:04.373Z,99.90
2022-11-02T00:41:31.283Z,99.90
2022-11-02T00:43:59.030Z,99.90
2022-11-02T00:46:25.963Z,99.90
2022-11-02T00:48:52.851Z,99.90
2022-11-02T00:51:19.974Z,99.90
2022-11-02T00:53:46.877Z,99.90
2022-11-02T00:56:13.711Z,99.90
2022-11-02T00:58:40.619Z,99.90
2022-11-02T01:01:08.814Z,99.90
2022-11-02T01:03:35.801Z,99.90
2022-11-02T01:06:14.703Z,99.90
2022-11-02T01:08:42.189Z,99.90
2022-11-02T01:11:15.234Z,99.90
2022-11-02T01:13:42.577Z,99.90
2022-11-02T01:16:10.113Z,99.90
2022-11-02T01:18:37.598Z,99.90
2022-11-02T01:21:05.212Z,99.90
2022-11-02T01:23:37.435Z,99.90
2022-11-02T01:26:09.517Z,99.90
2022-11-02T01:28:37.182Z,99.90
2022-11-02T01:31:04.417Z,99.90
2022-11-02T01:33:31.340Z,99.90
2022-11-02T01:35:58.559Z,99.90
2022-11-02T01:38:25.660Z,99.90
2022-11-02T01:40:52.595Z,99.90
2022-11-02T01:43:27.455Z,99.90
2022-11-02T01:46:24.553Z,99.90
2022-11-02T01:49:04.257Z,99.90
2022-11-02T01:51:48.512Z,99.90
2022-11-02T01:54:21.011Z,99.90
2022-11-02T01:56:53.994Z,99.90
2022-11-02T01:59:28.929Z,99.90
2022-11-02T02:01:55.974Z,99.90
2022-11-02T02:04:24.014Z,99.90
2022-11-02T02:06:52.009Z,99.90
2022-11-02T02:09:20.766Z,99.90
2022-11-02T02:11:47.665Z,99.90
2022-11-02T02:14:18.405Z,99.90
2022-11-02T02:17:40.698Z,99.90
2022-11-02T02:20:34.829Z,99.90
2022-11-02T02:23:41.542Z,99.90
2022-11-02T02:26:43.876Z,99.90
2022-11-02T02:29:25.609Z,99.90
2022-11-02T02:32:13.998Z,99.90
2022-11-02T02:34:53.869Z,99.90
2022-11-02T02:37:33.700Z,99.90
2022-11-02T02:40:08.931Z,99.90
2022-11-02T02:42:53.525Z,99.90
2022-11-02T02:45:27.818Z,99.90
2022-11-02T02:48:04.415Z,99.90
2022-11-02T02:50:41.040Z,99.90
2022-11-02T02:53:08.959Z,99.90
2022-11-02T02:55:44.253Z,99.90
2022-11-02T02:58:18.726Z,99.90
2022-11-02T03:00:46.270Z,99.90
2022-11-02T03:03:24.771Z,99.90
2022-11-02T03:06:30.772Z,99.90
2022-11-02T03:09:41.042Z,99.90
2022-11-02T03:12:21.740Z,99.90
2022-11-02T03:15:06.224Z,99.90
2022-11-02T03:17:41.822Z,99.90
2022-11-02T03:20:24.892Z,99.90
2022-11-02T03:23:13.492Z,99.90
2022-11-02T03:26:01.253Z,99.90
2022-11-02T03:28:40.804Z,99.90
2022-11-02T03:31:31.601Z,99.90
2022-11-02T03:34:17.494Z,99.90
2022-11-02T03:37:01.444Z,99.90
2022-11-02T03:39:38.199Z,99.90
2022-11-02T03:42:07.241Z,99.90
2022-11-02T03:44:38.956Z,99.90
2022-11-02T03:47:11.871Z,99.90
2022-11-02T03:49:42.107Z,99.90
2022-11-02T03:52:16.193Z,99.90
2022-11-02T03:55:13.512Z,99.90
2022-11-02T03:57:51.481Z,99.90
2022-11-02T04:00:22.357Z,99.90
2022-11-02T04:02:53.582Z,99.90
2022-11-02T04:05:21.146Z,99.90
2022-11-02T04:08:10.872Z,99.90
2022-11-02T04:10:57.738Z,99.90
2022-11-02T04:13:42.925Z,99.90
2022-11-02T04:16:09.870Z,99.90
2022-11-02T04:18:54.928Z,99.90
2022-11-02T04:21:21.863Z,99.90
2022-11-02T04:24:07.131Z,99.90
2022-11-02T04:26:34.040Z,99.90
2022-11-02T04:29:00.983Z,99.90
2022-11-02T04:31:27.840Z,99.90
2022-11-02T04:33:54.693Z,99.90
2022-11-02T04:36:21.635Z,99.90
2022-11-02T04:38:48.534Z,99.90
2022-11-02T04:41:38.813Z,99.90
2022-11-02T04:44:06.867Z,99.90
2022-11-02T04:46:36.769Z,99.90
2022-11-02T04:49:04.851Z,99.90
2022-11-02T04:51:32.029Z,99.90
2022-11-02T04:53:59.458Z,99.90
2022-11-02T04:56:28.131Z,99.90
2022-11-02T04:58:58.191Z,99.90
2022-11-02T05:01:28.365Z,99.90
2022-11-02T05:03:56.727Z,99.90
2022-11-02T05:06:25.020Z,99.90
2022-11-02T05:08:52.107Z,99.90
2022-11-02T05:11:19.132Z,99.90
2022-11-02T05:13:46.154Z,99.90
2022-11-02T05:16:16.096Z,99.90
2022-11-02T05:18:43.885Z,99.90
2022-11-02T05:21:12.753Z,99.90
2022-11-02T05:23:39.947Z,99.90
2022-11-02T05:26:12.067Z,99.90
2022-11-02T05:28:39.228Z,99.90
2022-11-02T05:31:06.572Z,99.90
2022-11-02T05:33:35.153Z,99.90
2022-11-02T05:36:02.024Z,99.90
2022-11-02T05:38:30.069Z,99.90
2022-11-02T05:41:00.557Z,99.90
2022-11-02T05:43:27.940Z,99.90
2022-11-02T05:46:00.803Z,99.90
2022-11-02T05:48:31.973Z,99.90
2022-11-02T05:51:01.695Z,99.90
2022-11-02T05:53:34.016Z,99.90
2022-11-02T05:56:03.302Z,99.90
2022-11-02T05:58:32.274Z,99.90
2022-11-02T06:01:00.670Z,99.90
2022-11-02T06:03:28.507Z,99.90
2022-11-02T06:06:05.758Z,99.90
2022-11-02T06:08:35.465Z,99.90
2022-11-02T06:11:12.040Z,99.90
2022-11-02T06:13:40.164Z,99.90
2022-11-02T06:16:09.559Z,99.90
2022-11-02T06:18:37.872Z,99.90
2022-11-02T06:21:05.077Z,99.90
2022-11-02T06:23:32.129Z,99.90
2022-11-02T06:26:00.478Z,99.90
2022-11-02T06:28:28.596Z,99.90
2022-11-02T06:30:55.742Z,99.90
2022-11-02T06:33:23.138Z,99.90
2022-11-02T06:35:52.728Z,99.90
2022-11-02T06:38:20.127Z,99.90
2022-11-02T06:40:58.762Z,99.90
2022-11-02T06:43:26.491Z,99.90
2022-11-02T06:45:58.098Z,99.90
2022-11-02T06:48:33.147Z,99.90
2022-11-02T06:51:01.746Z,99.90
2022-11-02T06:53:28.743Z,99.90
2022-11-02T06:55:57.992Z,99.90
2022-11-02T06:58:26.130Z,99.90
2022-11-02T07:01:05.621Z,99.90
2022-11-02T07:03:33.030Z,99.90
2022-11-02T07:06:00.187Z,99.90
2022-11-02T07:08:28.237Z,99.90
2022-11-02T07:10:55.874Z,99.90
2022-11-02T07:13:22.917Z,99.90
2022-11-02T07:15:53.359Z,99.90
2022-11-02T07:18:20.700Z,99.90
2022-11-02T07:20:47.666Z,99.90
2022-11-02T07:23:14.593Z,99.90
2022-11-02T07:25:41.604Z,99.90
2022-11-02T07:28:08.613Z,99.90
2022-11-02T07:30:35.839Z,99.90
2022-11-02T07:33:03.220Z,99.90
2022-11-02T07:35:30.640Z,99.90
2022-11-02T07:37:59.292Z,99.90
2022-11-02T07:40:27.839Z,99.90
2022-11-02T07:42:55.880Z,99.90
2022-11-02T07:45:23.841Z,99.90
2022-11-02T07:47:51.544Z,99.90
2022-11-02T07:50:22.003Z,99.90
2022-11-02T07:52:54.781Z,99.90
2022-11-02T07:55:24.990Z,99.90
2022-11-02T07:57:59.857Z,99.90
2022-11-02T08:00:33.011Z,99.90
2022-11-02T08:03:02.371Z,99.90
2022-11-02T08:05:31.502Z,99.90
2022-11-02T08:08:00.201Z,99.90
2022-11-02T08:10:29.026Z,99.90
2022-11-02T08:12:56.458Z,99.90
2022-11-02T08:15:24.249Z,99.90
2022-11-02T08:18:02.120Z,99.90
2022-11-02T08:20:30.775Z,99.90
2022-11-02T08:22:58.030Z,99.90
2022-11-02T08:25:25.526Z,99.90
2022-11-02T08:27:52.649Z,99.90
2022-11-02T08:30:19.613Z,99.90
2022-11-02T08:32:46.579Z,99.90
2022-11-02T08:35:13.675Z,99.90
2022-11-02T08:37:40.589Z,99.90
2022-11-02T08:40:08.483Z,99.90
2022-11-02T08:42:38.915Z,99.90
2022-11-02T08:45:07.603Z,99.90
2022-11-02T08:47:34.485Z,99.90
2022-11-02T08:50:01.451Z,99.90
2022-11-02T08:52:28.300Z,99.90
2022-11-02T08:54:56.320Z,99.90
2022-11-02T08:57:23.166Z,99.90
2022-11-02T08:59:50.021Z,99.90
2022-11-02T09:02:17.434Z,99.90
2022-11-02T09:04:44.631Z,99.90
2022-11-02T09:07:11.461Z,99.90
2022-11-02T09:09:38.361Z,99.90
2022-11-02T09:12:06.080Z,99.90
2022-11-02T09:14:32.996Z,99.90
2022-11-02T09:16:59.930Z,99.90
2022-11-02T09:19:26.834Z,99.90
2022-11-02T09:21:53.756Z,99.90
2022-11-02T09:24:20.668Z,99.90
2022-11-02T09:26:49.440Z,99.90
2022-11-02T09:29:16.329Z,99.90
2022-11-02T09:31:43.343Z,99.90
2022-11-02T09:34:10.585Z,99.90
2022-11-02T09:36:37.497Z,99.90
2022-11-02T09:39:04.510Z,99.90
2022-11-02T09:41:42.476Z,99.90
2022-11-02T09:44:29.061Z,99.90
2022-11-02T09:47:39.703Z,99.90
2022-11-02T09:49:45.369Z,99.90
2022-11-02T09:52:25.635Z,99.90
2022-11-02T09:54:55.837Z,99.90
2022-11-02T09:57:33.467Z,99.90
2022-11-02T10:00:00.484Z,99.90
2022-11-02T10:02:54.194Z,99.90
2022-11-02T10:05:35.092Z,99.90
2022-11-02T10:08:10.574Z,99.90
2022-11-02T10:10:56.907Z,99.90
2022-11-02T10:13:48.230Z,99.90
2022-11-02T10:16:46.101Z,99.90
2022-11-02T10:19:17.547Z,99.90
2022-11-02T10:21:48.732Z,99.90
2022-11-02T10:24:31.755Z,99.90
2022-11-02T10:27:10.253Z,99.90
2022-11-02T10:29:54.981Z,99.90
2022-11-02T10:32:22.141Z,99.90
2022-11-02T10:34:58.611Z,99.90
2022-11-02T10:38:33.290Z,99.90
2022-11-02T10:41:26.855Z,99.90
2022-11-02T10:44:27.964Z,99.90
2022-11-02T10:47:20.595Z,99.90
2022-11-02T10:50:36.907Z,99.90
2022-11-02T10:53:35.417Z,99.90
2022-11-02T10:56:02.101Z,99.90
2022-11-02T10:58:32.727Z,99.90
2022-11-02T11:01:08.848Z,99.40
2022-11-02T11:04:07.378Z,99.10
2022-11-02T11:06:42.872Z,98.30
2022-11-02T11:09:20.453Z,97.30
2022-11-02T11:11:56.970Z,97.80
2022-11-02T11:20:34.705Z,97.80
2022-11-02T11:23:15.520Z,96.40
2022-11-02T11:25:43.061Z,95.40
2022-11-02T11:28:42.383Z,95.40
2022-11-02T11:31:14.393Z,94.70
2022-11-02T11:34:19.442Z,95.30
2022-11-02T11:36:46.393Z,96.00
2022-11-02T11:39:29.486Z,96.50
2022-11-02T11:41:57.668Z,95.20
2022-11-02T11:44:25.198Z,95.10
2022-11-02T11:46:57.455Z,94.70
2022-11-02T11:50:07.752Z,95.50
2022-11-02T11:52:32.661Z,94.90
2022-11-02T11:55:23.093Z,94.50
2022-11-02T11:58:21.281Z,94.60
2022-11-02T12:01:12.295Z,94.60
2022-11-02T12:03:54.548Z,94.20
2022-11-02T12:06:54.095Z,94.20
2022-11-02T12:09:30.142Z,94.40
2022-11-02T12:12:35.918Z,94.10
2022-11-02T12:15:26.858Z,93.40
2022-11-02T12:18:05.784Z,93.40
2022-11-02T12:20:59.290Z,93.40
2022-11-02T12:24:00.330Z,94.40
2022-11-02T12:26:31.813Z,94.20
2022-11-02T12:29:22.567Z,93.00
2022-11-02T12:32:01.061Z,93.40
2022-11-02T12:35:27.336Z,93.70
2022-11-02T12:38:07.547Z,94.30
2022-11-02T12:41:00.323Z,93.50
2022-11-02T12:43:43.208Z,93.70
2022-11-02T12:46:44.629Z,93.50
2022-11-02T12:49:21.936Z,93.10
2022-11-02T12:52:26.345Z,92.90
2022-11-02T12:55:00.416Z,93.70
2022-11-02T12:57:33.315Z,94.10
2022-11-02T13:00:05.657Z,94.10
2022-11-02T13:03:03.282Z,93.80
2022-11-02T13:05:38.154Z,93.90
2022-11-02T13:08:21.430Z,94.50
2022-11-02T13:11:00.309Z,94.90
2022-11-02T13:13:44.294Z,94.90
2022-11-02T13:16:15.220Z,94.70
2022-11-02T13:18:50.564Z,94.10
2022-11-02T13:21:50.264Z,94.50
2022-11-02T13:24:25.186Z,93.60
2022-11-02T13:27:02.177Z,94.20
2022-11-02T13:29:47.997Z,94.20
2022-11-02T13:32:41.836Z,94.30
2022-11-02T13:35:29.978Z,94.50
2022-11-02T13:38:06.920Z,94.40
2022-11-02T13:40:43.547Z,94.70
2022-11-02T13:43:25.438Z,94.40
2022-11-02T13:46:19.649Z,94.40
2022-11-02T13:49:02.510Z,94.70
2022-11-02T13:52:02.642Z,94.60
2022-11-02T13:54:45.804Z,94.90
2022-11-02T13:57:41.462Z,94.80
2022-11-02T14:00:36.951Z,95.30
2022-11-02T14:03:17.760Z,95.20
2022-11-02T14:06:01.104Z,95.40
2022-11-02T14:08:39.049Z,95.30
2022-11-02T14:11:15.197Z,96.00
2022-11-02T14:13:54.421Z,95.40
2022-11-02T14:16:50.010Z,95.40
2022-11-02T14:19:32.233Z,95.30
2022-11-02T14:21:58.992Z,95.50
2022-11-02T14:24:34.993Z,96.50
2022-11-02T14:27:14.741Z,95.80
2022-11-02T14:29:47.192Z,95.90
2022-11-02T14:32:17.040Z,96.00
2022-11-02T14:35:10.325Z,96.10
2022-11-02T14:38:10.408Z,97.10
2022-11-02T14:41:18.485Z,96.30
2022-11-02T14:44:36.434Z,96.30
2022-11-02T14:47:18.532Z,96.40
2022-11-02T14:49:57.630Z,96.20
2022-11-02T14:52:37.789Z,96.50
2022-11-02T14:55:19.849Z,97.20
2022-11-02T14:58:10.540Z,97.20
2022-11-02T15:00:57.278Z,96.70
2022-11-02T15:03:25.537Z,97.20
2022-11-02T15:06:19.071Z,97.20
2022-11-02T15:09:00.150Z,97.50
2022-11-02T15:11:42.189Z,97.50
2022-11-02T15:14:38.012Z,97.60
2022-11-02T15:17:16.689Z,97.80
2022-11-02T15:19:47.047Z,98.20
2022-11-02T15:22:29.428Z,99.20
2022-11-02T15:25:03.717Z,98.50
2022-11-02T15:27:31.189Z,99.00
2022-11-02T15:29:58.994Z,99.20
2022-11-02T15:32:29.073Z,99.40
2022-11-02T15:34:57.324Z,99.70
2022-11-02T15:37:37.374Z,99.50
2022-11-02T15:40:30.293Z,99.60
2022-11-02T15:43:13.350Z,99.80
2022-11-02T15:46:02.278Z,99.90
2022-11-02T15:48:57.014Z,99.90
2022-11-02T15:51:57.447Z,99.90
2022-11-02T15:55:09.349Z,99.90
2022-11-02T15:57:45.070Z,99.90
2022-11-02T16:00:19.995Z,99.90
2022-11-02T16:02:50.201Z,99.90
2022-11-02T16:05:24.521Z,99.90
2022-11-02T16:08:10.358Z,99.90
2022-11-02T16:10:42.116Z,99.90
2022-11-02T16:13:22.049Z,99.90
2022-11-02T16:15:50.183Z,99.90
2022-11-02T16:18:38.232Z,99.90
2022-11-02T16:21:09.566Z,99.90
2022-11-02T16:23:47.670Z,99.90
2022-11-02T16:26:22.336Z,99.90
2022-11-02T16:28:52.562Z,99.90
2022-11-02T16:31:33.516Z,99.90
2022-11-02T16:34:42.084Z,99.90
2022-11-02T16:37:17.174Z,99.90
2022-11-02T16:39:47.240Z,99.90
2022-11-02T16:42:18.592Z,99.90
2022-11-02T16:44:57.816Z,99.90
2022-11-02T16:47:45.223Z,99.90
2022-11-02T16:50:25.467Z,99.90
2022-11-02T16:53:01.268Z,99.90
2022-11-02T16:55:46.495Z,99.90
2022-11-02T16:58:23.983Z,99.90
2022-11-02T17:01:03.343Z,99.90
2022-11-02T17:03:33.048Z,99.90
2022-11-02T17:06:04.511Z,99.90
2022-11-02T17:08:35.842Z,99.90
2022-11-02T17:11:05.815Z,99.90
2022-11-02T17:13:37.997Z,99.90
2022-11-02T17:16:09.622Z,99.90
2022-11-02T17:18:37.335Z,99.90
2022-11-02T17:21:15.805Z,99.90
2022-11-02T17:23:47.867Z,99.90
2022-11-02T17:26:26.577Z,99.90
2022-11-02T17:29:02.873Z,99.90
2022-11-02T17:31:36.705Z,99.90
2022-11-02T17:34:31.613Z,99.90
2022-11-02T17:36:58.718Z,99.90
2022-11-02T17:39:26.427Z,99.90
2022-11-02T17:42:14.847Z,99.90
2022-11-02T17:44:42.257Z,99.90
2022-11-02T17:47:14.768Z,99.90
2022-11-02T17:49:41.750Z,99.90
2022-11-02T17:52:13.784Z,99.90
2022-11-02T17:54:40.697Z,99.90
2022-11-02T17:57:15.413Z,99.90
2022-11-02T17:59:42.422Z,99.90
2022-11-02T18:02:14.071Z,99.90
2022-11-02T18:04:41.164Z,99.90
2022-11-02T18:07:08.092Z,99.90
2022-11-02T18:09:35.068Z,99.90
2022-11-02T18:12:01.989Z,99.90
2022-11-02T18:14:28.887Z,99.90
2022-11-02T18:16:58.410Z,99.90
2022-11-02T18:19:25.304Z,99.90
2022-11-02T18:21:52.234Z,99.90
2022-11-02T18:24:19.162Z,99.90
2022-11-02T18:26:47.196Z,99.90
2022-11-02T18:29:14.170Z,99.90
2022-11-02T18:31:41.122Z,99.90
2022-11-02T18:34:08.119Z,99.90
2022-11-02T18:36:38.733Z,99.90
2022-11-02T18:39:06.464Z,99.90
2022-11-02T18:41:36.989Z,99.90
2022-11-02T18:44:13.487Z,99.90
2022-11-02T18:46:42.220Z,99.90
2022-11-02T18:49:11.003Z,99.90
2022-11-02T18:51:38.050Z,99.90
2022-11-02T18:54:06.284Z,99.90
2022-11-02T18:56:33.709Z,99.90
2022-11-02T18:59:00.642Z,99.90
2022-11-02T19:01:28.175Z,99.90
2022-11-02T19:04:00.032Z,99.90
2022-11-02T19:06:48.337Z,99.90
2022-11-02T19:09:20.376Z,99.90
2022-11-02T19:12:10.036Z,99.90
2022-11-02T19:14:43.549Z,99.90
2022-11-02T19:17:12.774Z,99.90
2022-11-02T19:19:40.974Z,99.90
2022-11-02T19:22:07.971Z,99.90
2022-11-02T19:24:34.933Z,99.90
2022-11-02T19:27:02.006Z,99.90
2022-11-02T19:29:28.902Z,99.90
2022-11-02T19:31:55.894Z,99.90
2022-11-02T19:34:23.839Z,99.90
2022-11-02T19:36:50.855Z,99.90
2022-11-02T19:39:18.240Z,99.90
2022-11-02T19:41:48.706Z,99.90
2022-11-02T19:44:15.663Z,99.90
2022-11-02T19:49:10.343Z,99.90
2022-11-02T19:51:37.336Z,99.90
2022-11-02T19:54:04.729Z,99.90
2022-11-02T19:56:34.451Z,99.90
2022-11-02T19:59:02.250Z,99.90
2022-11-02T20:01:35.589Z,99.90
2022-11-02T20:04:05.997Z,99.90
2022-11-02T20:06:37.916Z,99.90
2022-11-02T20:09:08.520Z,99.90
2022-11-02T20:11:36.214Z,99.90
2022-11-02T20:14:05.334Z,99.90
2022-11-02T20:16:32.158Z,99.90
2022-11-02T20:18:59.414Z,99.90
2022-11-02T20:21:34.501Z,99.90
2022-11-02T20:24:03.580Z,99.90
2022-11-02T20:26:34.557Z,99.90
2022-11-02T20:29:03.857Z,99.90
2022-11-02T20:31:34.080Z,99.90
2022-11-02T20:34:02.345Z,99.90
2022-11-02T20:36:30.220Z,99.90
2022-11-02T20:38:57.848Z,99.90
2022-11-02T20:41:26.516Z,99.90
2022-11-02T20:43:57.923Z,99.90
2022-11-02T20:46:47.399Z,99.90
2022-11-02T20:49:22.275Z,99.90
2022-11-02T20:51:56.699Z,99.90
2022-11-02T20:54:23.972Z,99.90
2022-11-02T20:56:51.864Z,99.90
2022-11-02T20:59:18.911Z,99.90
2022-11-02T21:01:49.102Z,99.90
2022-11-02T21:04:20.797Z,99.90
2022-11-02T21:06:51.831Z,99.90
2022-11-02T21:09:19.713Z,99.90
2022-11-02T21:12:05.478Z,99.90
2022-11-02T21:14:32.867Z,99.90
2022-11-02T21:17:00.019Z,99.90
2022-11-02T21:19:27.050Z,99.90
2022-11-02T21:21:59.380Z,99.90
2022-11-02T21:24:27.988Z,99.90
2022-11-02T21:26:55.019Z,99.90
2022-11-02T21:29:22.015Z,99.90
2022-11-02T21:31:51.445Z,99.90
2022-11-02T21:34:18.504Z,99.90
2022-11-02T21:36:47.130Z,99.90
2022-11-02T21:39:14.176Z,99.90
2022-11-02T21:41:41.263Z,99.90
2022-11-02T21:44:09.022Z,99.90
2022-11-02T21:46:36.097Z,99.90
2022-11-02T21:49:03.203Z,99.90
2022-11-02T21:51:30.468Z,99.90
2022-11-02T21:53:57.466Z,99.90
2022-11-02T21:56:26.881Z,99.90
2022-11-02T21:58:55.976Z,99.90
2022-11-02T22:01:56.612Z,99.90
2022-11-02T22:04:31.810Z,99.90
2022-11-02T22:07:00.919Z,99.90
2022-11-02T22:09:30.842Z,99.90
2022-11-02T22:12:16.604Z,99.90
2022-11-02T22:14:44.866Z,99.90
2022-11-02T22:17:21.794Z,99.90
2022-11-02T22:20:00.155Z,99.90
2022-11-02T22:22:27.730Z,99.90
2022-11-02T22:24:54.763Z,99.90
2022-11-02T22:27:21.757Z,99.90
2022-11-02T22:29:48.788Z,99.90
2022-11-02T22:32:16.060Z,99.90
2022-11-02T22:34:43.870Z,99.90
2022-11-02T22:37:29.178Z,99.90
2022-11-02T22:39:56.112Z,99.90
2022-11-02T22:42:23.156Z,99.90
2022-11-02T22:44:50.210Z,99.90
2022-11-02T22:47:17.248Z,99.90
2022-11-02T22:49:44.497Z,99.90
2022-11-02T22:52:11.488Z,99.90
2022-11-02T22:54:38.486Z,99.90
2022-11-02T22:57:06.445Z,99.90
2022-11-02T22:59:33.491Z,99.90
2022-11-02T23:02:00.517Z,99.90
2022-11-02T23:04:27.831Z,99.90
2022-11-02T23:06:54.856Z,99.90
2022-11-02T23:09:22.206Z,99.90
2022-11-02T23:11:49.306Z,99.90
2022-11-02T23:14:17.177Z,99.90
2022-11-02T23:16:49.559Z,99.90
2022-11-02T23:19:22.082Z,99.90
2022-11-02T23:22:25.190Z,99.90
2022-11-02T23:25:17.091Z,99.90
2022-11-02T23:28:14.801Z,99.90
2022-11-02T23:31:01.084Z,99.90
2022-11-02T23:33:33.963Z,99.90
2022-11-02T23:36:11.060Z,99.90
2022-11-02T23:39:05.011Z,99.90
2022-11-02T23:41:34.542Z,99.90
2022-11-02T23:44:14.538Z,99.90
2022-11-02T23:46:46.833Z,99.90
2022-11-02T23:49:16.521Z,99.90
2022-11-02T23:52:02.300Z,99.90
2022-11-02T23:54:48.115Z,99.90
2022-11-02T23:57:15.290Z,99.90
2022-11-02T23:59:42.240Z,99.90
